createdAt,value
2019-03-27T00:01:54.058Z,78.50
2019-03-27T00:06:57.783Z,79.80
2019-03-27T00:12:01.394Z,79.70
2019-03-27T00:17:04.994Z,79.80
2019-03-27T00:22:08.649Z,79.70
2019-03-27T00:27:12.644Z,80.30
2019-03-27T00:32:16.302Z,80.60
2019-03-27T00:37:20.319Z,80.20
2019-03-27T00:42:24.045Z,80.90
2019-03-27T00:47:27.634Z,81.50
2019-03-27T00:52:31.697Z,81.30
2019-03-27T00:57:35.364Z,81.60
2019-03-27T01:02:39.026Z,81.00
2019-03-27T01:07:43.059Z,81.40
2019-03-27T01:12:46.725Z,81.70
2019-03-27T01:17:50.323Z,81.50
2019-03-27T01:22:53.995Z,82.00
2019-03-27T01:27:57.590Z,83.10
2019-03-27T01:33:01.246Z,83.10
2019-03-27T01:38:04.844Z,82.40
2019-03-27T01:43:08.421Z,82.10
2019-03-27T01:48:12.033Z,82.40
2019-03-27T01:53:15.670Z,83.10
2019-03-27T01:58:19.257Z,83.50
2019-03-27T02:03:22.873Z,83.00
2019-03-27T02:08:26.899Z,83.30
2019-03-27T02:13:30.510Z,82.80
2019-03-27T02:18:34.177Z,82.90
2019-03-27T02:23:37.853Z,83.40
2019-03-27T02:28:41.448Z,83.30
2019-03-27T02:33:45.062Z,83.70
2019-03-27T02:38:48.719Z,83.60
2019-03-27T02:43:52.313Z,84.20
2019-03-27T02:48:55.918Z,83.80
2019-03-27T02:53:59.498Z,84.20
2019-03-27T02:59:03.179Z,84.50
2019-03-27T03:04:06.835Z,84.10
2019-03-27T03:09:10.497Z,83.90
2019-03-27T03:14:14.150Z,84.00
2019-03-27T03:19:18.178Z,83.60
2019-03-27T03:24:21.776Z,83.60
2019-03-27T03:29:25.366Z,83.90
2019-03-27T03:34:29.005Z,83.80
2019-03-27T03:39:32.661Z,83.00
2019-03-27T03:44:36.573Z,82.40
2019-03-27T03:49:40.261Z,81.90
2019-03-27T03:54:43.921Z,82.70
2019-03-27T03:59:49.125Z,82.10
2019-03-27T04:04:54.931Z,82.40
2019-03-27T04:09:58.595Z,83.10
2019-03-27T04:15:02.305Z,83.10
2019-03-27T04:20:07.624Z,82.90
2019-03-27T04:25:11.612Z,83.00
2019-03-27T04:30:15.724Z,82.90
2019-03-27T04:35:19.369Z,83.60
2019-03-27T04:40:23.094Z,83.70
2019-03-27T04:45:26.753Z,83.70
2019-03-27T04:50:30.407Z,84.20
2019-03-27T04:55:34.142Z,84.30
2019-03-27T05:00:37.790Z,85.20
2019-03-27T05:05:53.753Z,84.50
2019-03-27T05:10:57.700Z,83.50
2019-03-27T05:16:01.346Z,85.00
2019-03-27T05:21:05.076Z,85.00
2019-03-27T05:26:08.649Z,84.60
2019-03-27T05:31:12.246Z,84.30
2019-03-27T05:36:15.847Z,84.50
2019-03-27T05:41:19.440Z,85.30
2019-03-27T05:46:26.390Z,84.30
2019-03-27T05:51:28.361Z,84.80
2019-03-27T05:56:32.114Z,86.90
2019-03-27T06:01:35.707Z,87.50
2019-03-27T06:06:39.361Z,88.40
2019-03-27T06:11:43.087Z,88.00
2019-03-27T06:16:46.743Z,86.50
2019-03-27T06:21:50.405Z,85.00
2019-03-27T06:26:54.065Z,84.30
2019-03-27T06:31:57.740Z,83.70
2019-03-27T06:37:01.717Z,83.90
2019-03-27T06:42:05.383Z,83.60
2019-03-27T06:47:08.995Z,83.50
2019-03-27T06:52:12.573Z,82.80
2019-03-27T06:57:35.853Z,81.70
2019-03-27T07:02:39.888Z,81.20
2019-03-27T07:07:43.477Z,79.90
2019-03-27T07:12:47.470Z,79.90
2019-03-27T07:17:53.145Z,80.30
2019-03-27T07:22:57.242Z,79.60
2019-03-27T07:28:01.168Z,78.30
2019-03-27T07:33:05.343Z,78.00
2019-03-27T07:38:09.017Z,75.90
2019-03-27T07:43:12.691Z,74.90
2019-03-27T07:48:16.342Z,72.40
2019-03-27T07:53:22.337Z,70.50
2019-03-27T07:58:25.604Z,68.90
2019-03-27T08:03:29.225Z,67.80
2019-03-27T08:08:32.806Z,65.30
2019-03-27T08:13:36.540Z,64.00
2019-03-27T08:18:40.142Z,62.70
2019-03-27T08:23:43.748Z,61.90
2019-03-27T08:28:47.352Z,61.10
2019-03-27T08:33:51.329Z,61.50
2019-03-27T08:38:55.301Z,60.10
2019-03-27T08:44:00.615Z,61.50
2019-03-27T08:49:04.273Z,60.70
2019-03-27T08:54:08.266Z,60.10
2019-03-27T08:59:12.349Z,59.80
2019-03-27T09:04:16.007Z,60.00
2019-03-27T09:09:19.670Z,59.90
2019-03-27T09:14:23.690Z,60.90
2019-03-27T09:19:35.684Z,60.80
2019-03-27T09:24:33.965Z,60.80
2019-03-27T09:29:37.634Z,60.70
2019-03-27T09:34:41.290Z,62.00
2019-03-27T09:39:47.759Z,60.00
2019-03-27T09:44:51.729Z,61.10
2019-03-27T09:49:55.782Z,60.20
2019-03-27T09:54:59.442Z,58.70
2019-03-27T10:00:04.687Z,56.00
2019-03-27T10:05:08.918Z,54.40
2019-03-27T10:10:12.893Z,55.10
2019-03-27T10:15:16.558Z,53.40
2019-03-27T10:20:20.137Z,55.20
2019-03-27T10:25:24.404Z,53.40
2019-03-27T10:30:28.433Z,54.10
2019-03-27T10:35:32.038Z,53.50
2019-03-27T10:40:35.638Z,53.30
2019-03-27T10:45:39.311Z,54.10
2019-03-27T10:50:42.974Z,54.10
2019-03-27T10:55:46.716Z,53.00
2019-03-27T11:00:51.101Z,50.70
2019-03-27T11:05:54.704Z,49.50
2019-03-27T11:10:58.371Z,51.40
2019-03-27T11:16:02.111Z,49.90
2019-03-27T11:21:06.230Z,50.00
2019-03-27T11:26:09.833Z,49.20
2019-03-27T11:31:13.911Z,49.60
2019-03-27T11:36:17.589Z,49.60
2019-03-27T11:41:21.715Z,48.50
2019-03-27T11:46:25.658Z,44.80
2019-03-27T11:51:29.310Z,46.50
2019-03-27T11:56:32.937Z,46.30
2019-03-27T12:01:40.749Z,45.00
2019-03-27T12:06:41.847Z,46.40
2019-03-27T12:11:45.449Z,44.80
2019-03-27T12:16:50.120Z,44.60
2019-03-27T12:21:54.978Z,46.40
2019-03-27T12:26:58.677Z,46.30
2019-03-27T12:32:02.353Z,45.30
2019-03-27T12:37:06.012Z,45.50
2019-03-27T12:42:09.609Z,46.00
2019-03-27T12:47:14.429Z,44.90
2019-03-27T12:52:18.713Z,43.60
2019-03-27T12:57:22.525Z,42.80
2019-03-27T13:02:26.274Z,44.40
2019-03-27T13:07:29.982Z,42.70
2019-03-27T13:12:33.641Z,41.60
2019-03-27T13:17:37.252Z,42.80
2019-03-27T13:22:41.215Z,42.10
2019-03-27T13:27:47.365Z,43.50
2019-03-27T13:32:50.134Z,43.10
2019-03-27T13:37:53.733Z,42.40
2019-03-27T13:42:57.514Z,44.20
2019-03-27T13:48:01.424Z,44.10
2019-03-27T13:53:05.115Z,43.40
2019-03-27T13:58:08.782Z,46.30
2019-03-27T14:03:12.511Z,46.30
2019-03-27T14:08:16.642Z,46.10
2019-03-27T14:13:20.647Z,47.40
2019-03-27T14:18:24.386Z,47.30
2019-03-27T14:23:28.209Z,47.70
2019-03-27T14:28:31.803Z,47.30
2019-03-27T14:33:35.797Z,47.60
2019-03-27T14:38:40.487Z,47.60
2019-03-27T14:43:43.996Z,47.40
2019-03-27T14:48:47.672Z,48.00
2019-03-27T14:53:51.346Z,47.50
2019-03-27T14:58:54.973Z,46.70
2019-03-27T15:03:58.690Z,46.60
2019-03-27T15:09:02.453Z,47.90
2019-03-27T15:14:06.217Z,47.20
2019-03-27T15:19:09.887Z,49.20
2019-03-27T15:24:13.538Z,46.70
2019-03-27T15:29:17.206Z,48.20
2019-03-27T15:34:21.159Z,47.80
2019-03-27T15:39:24.937Z,48.00
2019-03-27T15:44:29.021Z,47.60
2019-03-27T15:49:33.121Z,47.00
2019-03-27T15:54:36.876Z,47.10
2019-03-27T15:59:40.629Z,48.40
2019-03-27T16:04:44.228Z,47.70
2019-03-27T16:09:47.918Z,47.70
2019-03-27T16:14:51.977Z,48.60
2019-03-27T16:19:55.983Z,48.30
2019-03-27T16:24:59.652Z,47.40
2019-03-27T16:30:04.071Z,47.00
2019-03-27T16:35:09.140Z,49.10
2019-03-27T16:40:13.767Z,48.90
2019-03-27T16:45:17.609Z,49.10
2019-03-27T16:50:21.677Z,50.00
2019-03-27T16:55:25.680Z,50.30
2019-03-27T17:00:29.400Z,50.10
2019-03-27T17:05:33.410Z,50.40
2019-03-27T17:10:37.085Z,49.90
2019-03-27T17:15:41.184Z,49.20
2019-03-27T17:20:44.923Z,49.70
2019-03-27T17:25:49.282Z,50.20
2019-03-27T17:30:53.024Z,50.40
2019-03-27T17:35:56.630Z,51.10
2019-03-27T17:41:00.289Z,51.10
2019-03-27T17:46:05.126Z,51.10
2019-03-27T17:51:09.079Z,51.80
2019-03-27T17:56:13.205Z,51.90
2019-03-27T18:01:16.885Z,52.60
2019-03-27T18:06:20.530Z,52.80
2019-03-27T18:11:24.138Z,53.70
2019-03-27T18:16:28.787Z,54.00
2019-03-27T18:21:32.398Z,54.80
2019-03-27T18:26:36.430Z,55.60
2019-03-27T18:31:40.665Z,55.80
2019-03-27T18:36:44.397Z,56.40
2019-03-27T18:41:49.652Z,57.50
2019-03-27T18:46:53.240Z,58.80
2019-03-27T18:51:56.837Z,59.70
2019-03-27T18:57:00.765Z,60.50
2019-03-27T19:02:04.894Z,61.80
2019-03-27T19:07:08.616Z,62.10
2019-03-27T19:12:12.645Z,63.10
2019-03-27T19:17:16.580Z,63.80
2019-03-27T19:22:20.239Z,64.00
2019-03-27T19:27:24.241Z,64.90
2019-03-27T19:32:28.199Z,65.80
2019-03-27T19:37:31.816Z,67.40
2019-03-27T19:42:35.748Z,68.60
2019-03-27T19:47:39.641Z,68.60
2019-03-27T19:52:43.566Z,68.40
2019-03-27T19:57:47.633Z,68.40
2019-03-27T20:02:51.734Z,68.90
2019-03-27T20:07:55.401Z,70.40
2019-03-27T20:13:01.160Z,71.00
2019-03-27T20:18:04.941Z,71.40
2019-03-27T20:23:14.748Z,72.30
2019-03-27T20:28:14.252Z,72.80
2019-03-27T20:33:17.843Z,73.10
2019-03-27T20:43:32.036Z,74.00
2019-03-27T20:48:35.638Z,74.50
2019-03-27T20:53:39.238Z,75.10
2019-03-27T20:58:42.854Z,75.00
2019-03-27T21:03:46.469Z,75.70
2019-03-27T21:08:50.809Z,76.10
2019-03-27T21:13:54.486Z,76.40
2019-03-27T21:18:58.113Z,76.00
2019-03-27T21:24:01.793Z,76.10
2019-03-27T21:29:05.516Z,76.60
2019-03-27T21:34:09.200Z,77.10
2019-03-27T21:39:13.028Z,77.10
2019-03-27T21:44:16.993Z,77.80
2019-03-27T21:49:20.711Z,78.40
2019-03-27T21:54:24.522Z,77.80
2019-03-27T21:59:28.227Z,78.00
2019-03-27T22:04:31.897Z,78.10
2019-03-27T22:09:35.726Z,78.00
2019-03-27T22:14:39.522Z,78.80
2019-03-27T22:19:43.168Z,79.40
2019-03-27T22:24:47.226Z,79.60
2019-03-27T22:29:51.136Z,79.30
2019-03-27T22:34:55.263Z,79.00
2019-03-27T22:39:58.881Z,78.70
2019-03-27T22:45:02.993Z,79.80
2019-03-27T22:50:08.782Z,80.00
2019-03-27T22:55:12.582Z,80.70
2019-03-27T23:00:16.982Z,80.50
2019-03-27T23:05:20.643Z,80.70
2019-03-27T23:10:24.585Z,80.50
2019-03-27T23:15:28.249Z,80.50
2019-03-27T23:20:31.924Z,81.10
2019-03-27T23:25:35.903Z,81.10
2019-03-27T23:30:39.824Z,80.70
2019-03-27T23:35:44.666Z,81.60
2019-03-27T23:40:48.451Z,81.20
2019-03-27T23:46:11.378Z,81.10
2019-03-27T23:51:15.104Z,81.20
2019-03-27T23:56:18.717Z,81.10
